sensor_id;sensor_type;location;lat;lon;timestamp;P1;durP1;ratioP1;P2;durP2;ratioP2
3068;SDS011;1545;51.728;8.796;2023-04-25T00:01:10;32.13;;;12.50;;
3068;SDS011;1545;51.728;8.796;2023-04-25T00:03:38;37.57;;;12.80;;
3068;SDS011;1545;51.728;8.796;2023-04-25T00:06:04;33.83;;;12.50;;
3068;SDS011;1545;51.728;8.796;2023-04-25T00:08:31;34.23;;;11.10;;
3068;SDS011;1545;51.728;8.796;2023-04-25T00:10:57;40.33;;;12.53;;
3068;SDS011;1545;51.728;8.796;2023-04-25T00:13:23;40.00;;;12.37;;
3068;SDS011;1545;51.728;8.796;2023-04-25T00:15:50;32.73;;;12.13;;
3068;SDS011;1545;51.728;8.796;2023-04-25T00:18:16;37.73;;;12.30;;
3068;SDS011;1545;51.728;8.796;2023-04-25T00:20:42;41.10;;;11.90;;
3068;SDS011;1545;51.728;8.796;2023-04-25T00:23:11;28.83;;;11.73;;
3068;SDS011;1545;51.728;8.796;2023-04-25T00:25:42;40.23;;;11.80;;
3068;SDS011;1545;51.728;8.796;2023-04-25T00:28:11;31.20;;;11.93;;
3068;SDS011;1545;51.728;8.796;2023-04-25T00:30:38;34.50;;;12.33;;
3068;SDS011;1545;51.728;8.796;2023-04-25T00:33:04;45.50;;;12.80;;
3068;SDS011;1545;51.728;8.796;2023-04-25T00:35:29;31.63;;;11.27;;
3068;SDS011;1545;51.728;8.796;2023-04-25T00:37:55;32.33;;;11.30;;
3068;SDS011;1545;51.728;8.796;2023-04-25T00:40:20;35.93;;;11.53;;
3068;SDS011;1545;51.728;8.796;2023-04-25T00:42:46;36.87;;;12.13;;
3068;SDS011;1545;51.728;8.796;2023-04-25T00:45:12;30.67;;;11.90;;
3068;SDS011;1545;51.728;8.796;2023-04-25T00:47:39;38.23;;;12.37;;
3068;SDS011;1545;51.728;8.796;2023-04-25T00:50:05;33.10;;;13.03;;
3068;SDS011;1545;51.728;8.796;2023-04-25T00:52:32;34.13;;;12.30;;
3068;SDS011;1545;51.728;8.796;2023-04-25T00:54:57;33.97;;;12.97;;
3068;SDS011;1545;51.728;8.796;2023-04-25T00:57:24;32.23;;;13.53;;
3068;SDS011;1545;51.728;8.796;2023-04-25T00:59:50;35.80;;;14.47;;
3068;SDS011;1545;51.728;8.796;2023-04-25T01:02:17;43.13;;;14.03;;
3068;SDS011;1545;51.728;8.796;2023-04-25T01:04:43;32.47;;;15.07;;
3068;SDS011;1545;51.728;8.796;2023-04-25T02:04:23;47.87;;;18.40;;
3068;SDS011;1545;51.728;8.796;2023-04-25T02:06:49;41.00;;;18.57;;
3068;SDS011;1545;51.728;8.796;2023-04-25T02:09:14;48.90;;;18.13;;
3068;SDS011;1545;51.728;8.796;2023-04-25T02:11:40;49.73;;;19.33;;
3068;SDS011;1545;51.728;8.796;2023-04-25T02:14:05;48.53;;;19.00;;
3068;SDS011;1545;51.728;8.796;2023-04-25T02:16:31;49.37;;;19.47;;
3068;SDS011;1545;51.728;8.796;2023-04-25T02:18:56;42.90;;;19.83;;
3068;SDS011;1545;51.728;8.796;2023-04-25T02:21:22;61.00;;;20.47;;
3068;SDS011;1545;51.728;8.796;2023-04-25T02:23:47;56.43;;;20.87;;
3068;SDS011;1545;51.728;8.796;2023-04-25T02:26:14;55.67;;;20.37;;
3068;SDS011;1545;51.728;8.796;2023-04-25T02:28:39;64.03;;;22.30;;
3068;SDS011;1545;51.728;8.796;2023-04-25T02:31:05;48.13;;;20.67;;
3068;SDS011;1545;51.728;8.796;2023-04-25T02:33:31;51.53;;;21.53;;
3068;SDS011;1545;51.728;8.796;2023-04-25T02:35:56;61.57;;;21.70;;
3068;SDS011;1545;51.728;8.796;2023-04-25T02:38:21;52.37;;;21.03;;
3068;SDS011;1545;51.728;8.796;2023-04-25T02:40:47;58.13;;;23.20;;
3068;SDS011;1545;51.728;8.796;2023-04-25T02:43:12;54.20;;;21.33;;
3068;SDS011;1545;51.728;8.796;2023-04-25T02:45:38;62.97;;;22.10;;
3068;SDS011;1545;51.728;8.796;2023-04-25T02:48:03;54.33;;;22.67;;
3068;SDS011;1545;51.728;8.796;2023-04-25T02:50:29;60.70;;;23.20;;
3068;SDS011;1545;51.728;8.796;2023-04-25T02:52:55;56.47;;;23.77;;
3068;SDS011;1545;51.728;8.796;2023-04-25T02:55:20;66.23;;;23.10;;
3068;SDS011;1545;51.728;8.796;2023-04-25T02:57:47;53.37;;;23.90;;
3068;SDS011;1545;51.728;8.796;2023-04-25T03:00:12;55.53;;;23.53;;
3068;SDS011;1545;51.728;8.796;2023-04-25T03:02:39;59.63;;;23.23;;
3068;SDS011;1545;51.728;8.796;2023-04-25T03:05:05;55.70;;;24.03;;
3068;SDS011;1545;51.728;8.796;2023-04-25T03:07:30;60.07;;;26.30;;
3068;SDS011;1545;51.728;8.796;2023-04-25T03:09:56;59.87;;;26.37;;
3068;SDS011;1545;51.728;8.796;2023-04-25T03:12:22;60.87;;;26.17;;
3068;SDS011;1545;51.728;8.796;2023-04-25T03:14:47;55.13;;;25.17;;
3068;SDS011;1545;51.728;8.796;2023-04-25T03:17:13;55.13;;;26.53;;
3068;SDS011;1545;51.728;8.796;2023-04-25T03:19:38;67.77;;;27.97;;
3068;SDS011;1545;51.728;8.796;2023-04-25T03:22:04;61.13;;;26.83;;
3068;SDS011;1545;51.728;8.796;2023-04-25T03:24:29;59.70;;;26.97;;
3068;SDS011;1545;51.728;8.796;2023-04-25T03:26:55;54.50;;;25.40;;
3068;SDS011;1545;51.728;8.796;2023-04-25T03:29:20;52.03;;;25.00;;
3068;SDS011;1545;51.728;8.796;2023-04-25T03:31:49;51.23;;;25.07;;
3068;SDS011;1545;51.728;8.796;2023-04-25T03:34:15;60.13;;;25.37;;
3068;SDS011;1545;51.728;8.796;2023-04-25T03:36:40;53.03;;;24.30;;
3068;SDS011;1545;51.728;8.796;2023-04-25T03:39:06;51.80;;;25.10;;
3068;SDS011;1545;51.728;8.796;2023-04-25T03:41:31;54.60;;;25.17;;
3068;SDS011;1545;51.728;8.796;2023-04-25T03:43:57;56.67;;;25.13;;
3068;SDS011;1545;51.728;8.796;2023-04-25T03:46:22;54.90;;;22.73;;
3068;SDS011;1545;51.728;8.796;2023-04-25T03:48:48;53.23;;;22.83;;
3068;SDS011;1545;51.728;8.796;2023-04-25T03:51:13;50.53;;;23.03;;
3068;SDS011;1545;51.728;8.796;2023-04-25T03:53:39;53.33;;;23.23;;
3068;SDS011;1545;51.728;8.796;2023-04-25T03:56:04;54.20;;;22.70;;
3068;SDS011;1545;51.728;8.796;2023-04-25T03:58:30;53.43;;;23.70;;
3068;SDS011;1545;51.728;8.796;2023-04-25T04:00:56;59.53;;;23.60;;
3068;SDS011;1545;51.728;8.796;2023-04-25T04:03:21;47.00;;;19.70;;
3068;SDS011;1545;51.728;8.796;2023-04-25T04:05:46;37.63;;;15.87;;
3068;SDS011;1545;51.728;8.796;2023-04-25T04:08:12;46.83;;;15.63;;
3068;SDS011;1545;51.728;8.796;2023-04-25T04:10:38;49.50;;;15.40;;
3068;SDS011;1545;51.728;8.796;2023-04-25T04:13:03;38.30;;;14.53;;
3068;SDS011;1545;51.728;8.796;2023-04-25T04:15:29;43.00;;;15.73;;
3068;SDS011;1545;51.728;8.796;2023-04-25T04:17:54;50.40;;;15.83;;
3068;SDS011;1545;51.728;8.796;2023-04-25T04:20:20;50.80;;;15.93;;
3068;SDS011;1545;51.728;8.796;2023-04-25T04:22:46;40.90;;;14.43;;
3068;SDS011;1545;51.728;8.796;2023-04-25T04:25:11;51.53;;;14.77;;
3068;SDS011;1545;51.728;8.796;2023-04-25T04:27:37;49.33;;;12.97;;
3068;SDS011;1545;51.728;8.796;2023-04-25T04:30:03;35.70;;;13.30;;
3068;SDS011;1545;51.728;8.796;2023-04-25T04:32:29;46.63;;;14.20;;
3068;SDS011;1545;51.728;8.796;2023-04-25T04:34:55;40.53;;;14.40;;
3068;SDS011;1545;51.728;8.796;2023-04-25T04:37:20;46.70;;;14.23;;
3068;SDS011;1545;51.728;8.796;2023-04-25T04:39:46;42.67;;;15.17;;
3068;SDS011;1545;51.728;8.796;2023-04-25T04:42:12;58.37;;;16.80;;
3068;SDS011;1545;51.728;8.796;2023-04-25T04:44:38;63.20;;;17.30;;
3068;SDS011;1545;51.728;8.796;2023-04-25T04:47:03;46.43;;;16.17;;
3068;SDS011;1545;51.728;8.796;2023-04-25T04:49:31;55.23;;;16.37;;
3068;SDS011;1545;51.728;8.796;2023-04-25T04:51:57;48.77;;;18.10;;
3068;SDS011;1545;51.728;8.796;2023-04-25T04:54:22;47.33;;;15.97;;
3068;SDS011;1545;51.728;8.796;2023-04-25T04:56:48;51.87;;;18.20;;
3068;SDS011;1545;51.728;8.796;2023-04-25T04:59:13;59.17;;;18.47;;
3068;SDS011;1545;51.728;8.796;2023-04-25T05:01:39;52.77;;;17.47;;
3068;SDS011;1545;51.728;8.796;2023-04-25T05:04:05;68.47;;;17.50;;
3068;SDS011;1545;51.728;8.796;2023-04-25T05:06:30;55.70;;;17.20;;
3068;SDS011;1545;51.728;8.796;2023-04-25T05:08:56;73.03;;;16.43;;
3068;SDS011;1545;51.728;8.796;2023-04-25T05:11:23;50.60;;;15.63;;
3068;SDS011;1545;51.728;8.796;2023-04-25T05:13:49;56.60;;;15.97;;
3068;SDS011;1545;51.728;8.796;2023-04-25T05:16:16;61.70;;;16.60;;
3068;SDS011;1545;51.728;8.796;2023-04-25T05:18:41;55.13;;;15.57;;
3068;SDS011;1545;51.728;8.796;2023-04-25T05:21:07;66.63;;;16.03;;
3068;SDS011;1545;51.728;8.796;2023-04-25T05:23:32;55.47;;;15.03;;
3068;SDS011;1545;51.728;8.796;2023-04-25T05:25:58;49.97;;;16.57;;
3068;SDS011;1545;51.728;8.796;2023-04-25T05:28:24;58.63;;;16.37;;
3068;SDS011;1545;51.728;8.796;2023-04-25T05:30:49;40.17;;;11.30;;
3068;SDS011;1545;51.728;8.796;2023-04-25T05:33:15;65.73;;;16.73;;
3068;SDS011;1545;51.728;8.796;2023-04-25T05:35:41;58.73;;;16.10;;
3068;SDS011;1545;51.728;8.796;2023-04-25T05:38:06;43.87;;;14.77;;
3068;SDS011;1545;51.728;8.796;2023-04-25T05:40:32;58.23;;;15.30;;
3068;SDS011;1545;51.728;8.796;2023-04-25T05:42:58;50.57;;;15.23;;
3068;SDS011;1545;51.728;8.796;2023-04-25T05:45:23;52.77;;;14.17;;
3068;SDS011;1545;51.728;8.796;2023-04-25T05:47:49;59.17;;;14.70;;
3068;SDS011;1545;51.728;8.796;2023-04-25T05:50:14;70.40;;;13.97;;
3068;SDS011;1545;51.728;8.796;2023-04-25T05:52:40;58.97;;;14.53;;
3068;SDS011;1545;51.728;8.796;2023-04-25T05:55:05;53.90;;;13.77;;
3068;SDS011;1545;51.728;8.796;2023-04-25T05:57:31;55.63;;;14.10;;
3068;SDS011;1545;51.728;8.796;2023-04-25T05:59:57;58.40;;;13.87;;
3068;SDS011;1545;51.728;8.796;2023-04-25T06:02:22;47.10;;;13.43;;
3068;SDS011;1545;51.728;8.796;2023-04-25T06:04:49;52.27;;;13.43;;
3068;SDS011;1545;51.728;8.796;2023-04-25T06:07:15;52.13;;;13.47;;
3068;SDS011;1545;51.728;8.796;2023-04-25T06:09:41;61.50;;;13.83;;
3068;SDS011;1545;51.728;8.796;2023-04-25T06:12:06;46.80;;;12.43;;
3068;SDS011;1545;51.728;8.796;2023-04-25T06:14:32;47.67;;;12.63;;
3068;SDS011;1545;51.728;8.796;2023-04-25T06:16:58;66.50;;;12.50;;
3068;SDS011;1545;51.728;8.796;2023-04-25T06:19:24;41.97;;;11.23;;
3068;SDS011;1545;51.728;8.796;2023-04-25T06:21:50;48.27;;;12.50;;
3068;SDS011;1545;51.728;8.796;2023-04-25T06:24:15;48.17;;;11.17;;
3068;SDS011;1545;51.728;8.796;2023-04-25T06:26:41;54.50;;;12.57;;
3068;SDS011;1545;51.728;8.796;2023-04-25T06:29:06;49.03;;;11.10;;
3068;SDS011;1545;51.728;8.796;2023-04-25T06:31:32;33.93;;;10.40;;
3068;SDS011;1545;51.728;8.796;2023-04-25T06:33:58;40.37;;;10.57;;
3068;SDS011;1545;51.728;8.796;2023-04-25T06:36:24;31.93;;;9.80;;
3068;SDS011;1545;51.728;8.796;2023-04-25T06:38:52;43.30;;;10.40;;
3068;SDS011;1545;51.728;8.796;2023-04-25T06:41:18;40.07;;;10.37;;
3068;SDS011;1545;51.728;8.796;2023-04-25T06:43:43;42.80;;;9.40;;
3068;SDS011;1545;51.728;8.796;2023-04-25T06:46:09;50.17;;;9.93;;
3068;SDS011;1545;51.728;8.796;2023-04-25T06:48:35;35.03;;;8.83;;
3068;SDS011;1545;51.728;8.796;2023-04-25T06:51:00;40.50;;;10.07;;
3068;SDS011;1545;51.728;8.796;2023-04-25T06:53:26;43.13;;;10.67;;
3068;SDS011;1545;51.728;8.796;2023-04-25T06:55:51;38.23;;;10.93;;
3068;SDS011;1545;51.728;8.796;2023-04-25T06:58:17;31.60;;;9.97;;
3068;SDS011;1545;51.728;8.796;2023-04-25T07:00:43;27.50;;;8.50;;
3068;SDS011;1545;51.728;8.796;2023-04-25T07:03:09;30.67;;;8.97;;
3068;SDS011;1545;51.728;8.796;2023-04-25T07:05:34;32.20;;;8.67;;
3068;SDS011;1545;51.728;8.796;2023-04-25T07:08:00;38.93;;;9.17;;
3068;SDS011;1545;51.728;8.796;2023-04-25T07:10:25;34.77;;;9.43;;
3068;SDS011;1545;51.728;8.796;2023-04-25T07:12:51;31.87;;;8.30;;
3068;SDS011;1545;51.728;8.796;2023-04-25T07:15:17;30.53;;;8.20;;
3068;SDS011;1545;51.728;8.796;2023-04-25T07:17:42;30.00;;;8.43;;
3068;SDS011;1545;51.728;8.796;2023-04-25T07:20:08;28.83;;;7.53;;
3068;SDS011;1545;51.728;8.796;2023-04-25T07:22:35;29.50;;;7.30;;
3068;SDS011;1545;51.728;8.796;2023-04-25T07:25:00;27.87;;;7.37;;
3068;SDS011;1545;51.728;8.796;2023-04-25T07:27:26;33.73;;;7.77;;
3068;SDS011;1545;51.728;8.796;2023-04-25T07:29:51;37.67;;;8.00;;
3068;SDS011;1545;51.728;8.796;2023-04-25T07:32:17;28.90;;;7.07;;
3068;SDS011;1545;51.728;8.796;2023-04-25T07:34:42;26.67;;;7.33;;
3068;SDS011;1545;51.728;8.796;2023-04-25T07:37:08;33.97;;;7.83;;
3068;SDS011;1545;51.728;8.796;2023-04-25T07:39:33;33.07;;;7.70;;
3068;SDS011;1545;51.728;8.796;2023-04-25T07:41:59;31.58;;;7.10;;
3068;SDS011;1545;51.728;8.796;2023-04-25T07:44:25;24.00;;;6.70;;
3068;SDS011;1545;51.728;8.796;2023-04-25T07:46:51;67.80;;;22.20;;
3068;SDS011;1545;51.728;8.796;2023-04-25T07:49:17;34.53;;;7.73;;
3068;SDS011;1545;51.728;8.796;2023-04-25T07:51:42;32.70;;;7.50;;
3068;SDS011;1545;51.728;8.796;2023-04-25T07:54:09;28.30;;;5.93;;
3068;SDS011;1545;51.728;8.796;2023-04-25T07:56:34;32.27;;;6.40;;
3068;SDS011;1545;51.728;8.796;2023-04-25T07:59:00;27.33;;;6.53;;
3068;SDS011;1545;51.728;8.796;2023-04-25T08:01:26;26.13;;;6.57;;
3068;SDS011;1545;51.728;8.796;2023-04-25T08:03:51;23.67;;;6.33;;
3068;SDS011;1545;51.728;8.796;2023-04-25T08:06:17;28.43;;;5.83;;
3068;SDS011;1545;51.728;8.796;2023-04-25T08:08:43;27.00;;;5.33;;
3068;SDS011;1545;51.728;8.796;2023-04-25T08:11:08;30.90;;;6.70;;
3068;SDS011;1545;51.728;8.796;2023-04-25T08:13:34;27.07;;;6.17;;
3068;SDS011;1545;51.728;8.796;2023-04-25T08:16:00;28.97;;;5.67;;
3068;SDS011;1545;51.728;8.796;2023-04-25T08:18:25;28.30;;;6.47;;
3068;SDS011;1545;51.728;8.796;2023-04-25T08:20:51;23.27;;;5.50;;
3068;SDS011;1545;51.728;8.796;2023-04-25T08:23:16;23.10;;;5.20;;
3068;SDS011;1545;51.728;8.796;2023-04-25T08:25:42;23.37;;;5.30;;
3068;SDS011;1545;51.728;8.796;2023-04-25T08:28:07;20.63;;;4.97;;
3068;SDS011;1545;51.728;8.796;2023-04-25T08:30:33;25.77;;;5.23;;
3068;SDS011;1545;51.728;8.796;2023-04-25T08:32:58;28.93;;;5.37;;
3068;SDS011;1545;51.728;8.796;2023-04-25T08:35:24;29.10;;;4.87;;
3068;SDS011;1545;51.728;8.796;2023-04-25T08:37:50;19.80;;;4.30;;
3068;SDS011;1545;51.728;8.796;2023-04-25T08:40:16;23.00;;;4.90;;
3068;SDS011;1545;51.728;8.796;2023-04-25T08:42:41;20.88;;;5.32;;
3068;SDS011;1545;51.728;8.796;2023-04-25T08:45:08;18.30;;;4.93;;
3068;SDS011;1545;51.728;8.796;2023-04-25T08:47:34;19.43;;;5.27;;
3068;SDS011;1545;51.728;8.796;2023-04-25T08:50:02;15.10;;;4.60;;
3068;SDS011;1545;51.728;8.796;2023-04-25T08:52:30;24.90;;;5.63;;
3068;SDS011;1545;51.728;8.796;2023-04-25T08:55:00;21.87;;;5.17;;
3068;SDS011;1545;51.728;8.796;2023-04-25T08:57:27;20.70;;;4.83;;
3068;SDS011;1545;51.728;8.796;2023-04-25T08:59:54;20.47;;;5.13;;
3068;SDS011;1545;51.728;8.796;2023-04-25T09:02:21;19.97;;;4.40;;
3068;SDS011;1545;51.728;8.796;2023-04-25T09:04:47;14.07;;;4.37;;
3068;SDS011;1545;51.728;8.796;2023-04-25T09:07:13;16.87;;;4.37;;
3068;SDS011;1545;51.728;8.796;2023-04-25T09:09:43;15.97;;;4.00;;
3068;SDS011;1545;51.728;8.796;2023-04-25T09:12:08;19.90;;;4.37;;
3068;SDS011;1545;51.728;8.796;2023-04-25T09:14:34;19.17;;;4.67;;
3068;SDS011;1545;51.728;8.796;2023-04-25T09:17:01;18.40;;;4.63;;
3068;SDS011;1545;51.728;8.796;2023-04-25T09:19:32;17.37;;;4.83;;
3068;SDS011;1545;51.728;8.796;2023-04-25T09:22:05;17.70;;;4.70;;
3068;SDS011;1545;51.728;8.796;2023-04-25T09:24:31;11.90;;;3.90;;
3068;SDS011;1545;51.728;8.796;2023-04-25T09:27:05;14.13;;;4.50;;
3068;SDS011;1545;51.728;8.796;2023-04-25T09:29:32;10.37;;;3.73;;
3068;SDS011;1545;51.728;8.796;2023-04-25T09:32:18;19.13;;;4.13;;
3068;SDS011;1545;51.728;8.796;2023-04-25T09:34:49;16.33;;;4.20;;
3068;SDS011;1545;51.728;8.796;2023-04-25T09:37:19;11.10;;;3.70;;
3068;SDS011;1545;51.728;8.796;2023-04-25T09:39:56;17.93;;;4.37;;
3068;SDS011;1545;51.728;8.796;2023-04-25T09:42:29;9.23;;;3.80;;
3068;SDS011;1545;51.728;8.796;2023-04-25T09:44:57;15.37;;;3.73;;
3068;SDS011;1545;51.728;8.796;2023-04-25T09:47:24;15.67;;;4.20;;
3068;SDS011;1545;51.728;8.796;2023-04-25T09:49:51;18.87;;;3.90;;
3068;SDS011;1545;51.728;8.796;2023-04-25T09:52:22;15.30;;;4.17;;
3068;SDS011;1545;51.728;8.796;2023-04-25T09:54:49;20.10;;;4.93;;
3068;SDS011;1545;51.728;8.796;2023-04-25T09:59:53;9.93;;;3.70;;
3068;SDS011;1545;51.728;8.796;2023-04-25T10:02:21;17.13;;;4.20;;
3068;SDS011;1545;51.728;8.796;2023-04-25T10:04:48;17.13;;;4.23;;
3068;SDS011;1545;51.728;8.796;2023-04-25T10:07:17;18.03;;;4.33;;
3068;SDS011;1545;51.728;8.796;2023-04-25T10:09:44;16.97;;;4.23;;
3068;SDS011;1545;51.728;8.796;2023-04-25T10:12:12;13.33;;;3.83;;
3068;SDS011;1545;51.728;8.796;2023-04-25T10:14:38;19.73;;;3.33;;
3068;SDS011;1545;51.728;8.796;2023-04-25T10:17:04;15.37;;;3.70;;
3068;SDS011;1545;51.728;8.796;2023-04-25T10:19:31;9.67;;;3.50;;
3068;SDS011;1545;51.728;8.796;2023-04-25T10:24:42;8.47;;;3.13;;
3068;SDS011;1545;51.728;8.796;2023-04-25T10:27:09;10.93;;;3.40;;
3068;SDS011;1545;51.728;8.796;2023-04-25T10:29:35;13.77;;;3.87;;
3068;SDS011;1545;51.728;8.796;2023-04-25T10:32:00;13.20;;;3.77;;
3068;SDS011;1545;51.728;8.796;2023-04-25T10:34:42;10.20;;;3.30;;
3068;SDS011;1545;51.728;8.796;2023-04-25T10:37:11;10.27;;;3.30;;
3068;SDS011;1545;51.728;8.796;2023-04-25T10:39:38;8.10;;;3.00;;
3068;SDS011;1545;51.728;8.796;2023-04-25T10:42:05;7.83;;;3.23;;
3068;SDS011;1545;51.728;8.796;2023-04-25T10:44:32;17.03;;;3.23;;
3068;SDS011;1545;51.728;8.796;2023-04-25T10:47:01;10.40;;;3.20;;
3068;SDS011;1545;51.728;8.796;2023-04-25T10:49:31;10.90;;;3.40;;
3068;SDS011;1545;51.728;8.796;2023-04-25T10:52:16;16.10;;;5.60;;
3068;SDS011;1545;51.728;8.796;2023-04-25T10:54:47;9.53;;;3.13;;
3068;SDS011;1545;51.728;8.796;2023-04-25T11:00:05;8.40;;;2.93;;
3068;SDS011;1545;51.728;8.796;2023-04-25T11:02:42;15.35;;;3.70;;
3068;SDS011;1545;51.728;8.796;2023-04-25T11:05:20;15.13;;;3.63;;
3068;SDS011;1545;51.728;8.796;2023-04-25T11:07:50;10.47;;;3.50;;
3068;SDS011;1545;51.728;8.796;2023-04-25T11:10:17;15.63;;;3.30;;
3068;SDS011;1545;51.728;8.796;2023-04-25T11:12:44;11.97;;;3.83;;
3068;SDS011;1545;51.728;8.796;2023-04-25T11:15:10;13.43;;;3.20;;
3068;SDS011;1545;51.728;8.796;2023-04-25T11:17:36;11.07;;;3.63;;
3068;SDS011;1545;51.728;8.796;2023-04-25T11:20:02;13.67;;;3.13;;
3068;SDS011;1545;51.728;8.796;2023-04-25T11:22:32;16.37;;;3.57;;
3068;SDS011;1545;51.728;8.796;2023-04-25T11:25:03;10.20;;;3.37;;
3068;SDS011;1545;51.728;8.796;2023-04-25T11:27:30;9.63;;;3.17;;
3068;SDS011;1545;51.728;8.796;2023-04-25T11:29:55;9.07;;;3.47;;
3068;SDS011;1545;51.728;8.796;2023-04-25T11:32:21;14.33;;;4.30;;
3068;SDS011;1545;51.728;8.796;2023-04-25T11:34:46;10.33;;;3.20;;
3068;SDS011;1545;51.728;8.796;2023-04-25T11:37:12;14.57;;;4.10;;
3068;SDS011;1545;51.728;8.796;2023-04-25T11:39:38;10.03;;;3.83;;
3068;SDS011;1545;51.728;8.796;2023-04-25T11:42:08;12.60;;;3.63;;
3068;SDS011;1545;51.728;8.796;2023-04-25T11:44:33;15.87;;;3.77;;
3068;SDS011;1545;51.728;8.796;2023-04-25T11:46:59;13.03;;;3.50;;
3068;SDS011;1545;51.728;8.796;2023-04-25T11:49:25;11.77;;;4.27;;
3068;SDS011;1545;51.728;8.796;2023-04-25T11:51:56;15.33;;;3.50;;
3068;SDS011;1545;51.728;8.796;2023-04-25T11:54:21;12.63;;;4.40;;
3068;SDS011;1545;51.728;8.796;2023-04-25T11:56:48;8.63;;;3.00;;
3068;SDS011;1545;51.728;8.796;2023-04-25T11:59:13;8.33;;;3.23;;
3068;SDS011;1545;51.728;8.796;2023-04-25T12:01:40;10.60;;;3.67;;
3068;SDS011;1545;51.728;8.796;2023-04-25T12:04:12;12.77;;;3.50;;
3068;SDS011;1545;51.728;8.796;2023-04-25T12:06:52;10.43;;;3.30;;
3068;SDS011;1545;51.728;8.796;2023-04-25T12:09:20;14.13;;;3.40;;
3068;SDS011;1545;51.728;8.796;2023-04-25T12:11:55;9.23;;;3.53;;
3068;SDS011;1545;51.728;8.796;2023-04-25T12:14:29;10.77;;;3.27;;
3068;SDS011;1545;51.728;8.796;2023-04-25T12:16:59;10.03;;;3.30;;
3068;SDS011;1545;51.728;8.796;2023-04-25T12:19:26;14.20;;;3.60;;
3068;SDS011;1545;51.728;8.796;2023-04-25T12:22:01;10.60;;;3.50;;
3068;SDS011;1545;51.728;8.796;2023-04-25T12:24:28;12.93;;;3.50;;
3068;SDS011;1545;51.728;8.796;2023-04-25T12:29:29;11.67;;;3.37;;
3068;SDS011;1545;51.728;8.796;2023-04-25T12:31:56;11.33;;;3.23;;
3068;SDS011;1545;51.728;8.796;2023-04-25T12:34:22;9.83;;;3.43;;
3068;SDS011;1545;51.728;8.796;2023-04-25T12:36:48;10.77;;;3.30;;
3068;SDS011;1545;51.728;8.796;2023-04-25T12:39:19;13.80;;;3.20;;
3068;SDS011;1545;51.728;8.796;2023-04-25T12:41:49;11.67;;;3.73;;
3068;SDS011;1545;51.728;8.796;2023-04-25T12:44:15;18.20;;;3.67;;
3068;SDS011;1545;51.728;8.796;2023-04-25T12:46:41;14.37;;;3.77;;
3068;SDS011;1545;51.728;8.796;2023-04-25T12:49:07;12.47;;;3.50;;
3068;SDS011;1545;51.728;8.796;2023-04-25T12:51:33;7.63;;;3.43;;
3068;SDS011;1545;51.728;8.796;2023-04-25T12:53:59;11.63;;;4.23;;
3068;SDS011;1545;51.728;8.796;2023-04-25T12:56:28;20.03;;;3.50;;
3068;SDS011;1545;51.728;8.796;2023-04-25T12:58:54;7.63;;;3.40;;
3068;SDS011;1545;51.728;8.796;2023-04-25T13:01:20;10.10;;;3.77;;
3068;SDS011;1545;51.728;8.796;2023-04-25T13:03:46;14.43;;;3.83;;
3068;SDS011;1545;51.728;8.796;2023-04-25T13:06:13;9.30;;;3.20;;
3068;SDS011;1545;51.728;8.796;2023-04-25T13:08:38;10.60;;;3.60;;
3068;SDS011;1545;51.728;8.796;2023-04-25T13:11:04;9.07;;;3.17;;
3068;SDS011;1545;51.728;8.796;2023-04-25T13:13:31;14.00;;;4.17;;
3068;SDS011;1545;51.728;8.796;2023-04-25T13:15:57;14.07;;;4.40;;
3068;SDS011;1545;51.728;8.796;2023-04-25T13:18:23;11.30;;;3.93;;
3068;SDS011;1545;51.728;8.796;2023-04-25T13:20:51;9.97;;;3.57;;
3068;SDS011;1545;51.728;8.796;2023-04-25T13:23:18;12.63;;;3.20;;
3068;SDS011;1545;51.728;8.796;2023-04-25T13:25:43;9.63;;;3.47;;
3068;SDS011;1545;51.728;8.796;2023-04-25T13:28:09;8.83;;;3.33;;
3068;SDS011;1545;51.728;8.796;2023-04-25T13:30:35;10.80;;;3.60;;
3068;SDS011;1545;51.728;8.796;2023-04-25T13:33:00;15.53;;;3.90;;
3068;SDS011;1545;51.728;8.796;2023-04-25T13:35:28;12.07;;;4.13;;
3068;SDS011;1545;51.728;8.796;2023-04-25T13:37:55;11.77;;;3.63;;
3068;SDS011;1545;51.728;8.796;2023-04-25T13:40:21;8.40;;;3.40;;
3068;SDS011;1545;51.728;8.796;2023-04-25T13:42:47;10.90;;;3.33;;
3068;SDS011;1545;51.728;8.796;2023-04-25T13:45:13;9.93;;;4.17;;
3068;SDS011;1545;51.728;8.796;2023-04-25T13:47:38;7.67;;;3.20;;
3068;SDS011;1545;51.728;8.796;2023-04-25T13:50:04;13.63;;;3.60;;
3068;SDS011;1545;51.728;8.796;2023-04-25T13:52:30;10.17;;;3.80;;
3068;SDS011;1545;51.728;8.796;2023-04-25T13:54:56;15.83;;;4.10;;
3068;SDS011;1545;51.728;8.796;2023-04-25T13:57:22;12.57;;;3.50;;
3068;SDS011;1545;51.728;8.796;2023-04-25T13:59:48;8.23;;;3.43;;
3068;SDS011;1545;51.728;8.796;2023-04-25T14:02:13;11.13;;;3.50;;
3068;SDS011;1545;51.728;8.796;2023-04-25T14:04:39;12.57;;;3.60;;
3068;SDS011;1545;51.728;8.796;2023-04-25T14:07:05;7.10;;;2.90;;
3068;SDS011;1545;51.728;8.796;2023-04-25T14:09:31;8.07;;;2.67;;
3068;SDS011;1545;51.728;8.796;2023-04-25T14:11:56;6.77;;;2.30;;
3068;SDS011;1545;51.728;8.796;2023-04-25T14:14:22;6.10;;;2.47;;
3068;SDS011;1545;51.728;8.796;2023-04-25T14:16:48;3.83;;;2.63;;
3068;SDS011;1545;51.728;8.796;2023-04-25T14:19:15;7.00;;;2.13;;
3068;SDS011;1545;51.728;8.796;2023-04-25T14:21:41;4.63;;;2.20;;
3068;SDS011;1545;51.728;8.796;2023-04-25T14:24:08;13.60;;;2.60;;
3068;SDS011;1545;51.728;8.796;2023-04-25T14:26:34;8.27;;;2.90;;
3068;SDS011;1545;51.728;8.796;2023-04-25T14:29:03;6.43;;;2.43;;
3068;SDS011;1545;51.728;8.796;2023-04-25T14:31:30;6.60;;;3.03;;
3068;SDS011;1545;51.728;8.796;2023-04-25T14:33:56;9.13;;;3.17;;
3068;SDS011;1545;51.728;8.796;2023-04-25T14:36:21;5.47;;;2.63;;
3068;SDS011;1545;51.728;8.796;2023-04-25T14:38:47;4.80;;;2.70;;
3068;SDS011;1545;51.728;8.796;2023-04-25T14:41:12;8.03;;;3.00;;
3068;SDS011;1545;51.728;8.796;2023-04-25T14:43:38;10.20;;;2.80;;
3068;SDS011;1545;51.728;8.796;2023-04-25T14:46:05;10.60;;;2.87;;
3068;SDS011;1545;51.728;8.796;2023-04-25T14:48:31;13.70;;;4.00;;
3068;SDS011;1545;51.728;8.796;2023-04-25T14:50:57;7.23;;;2.50;;
3068;SDS011;1545;51.728;8.796;2023-04-25T14:53:23;6.77;;;3.07;;
3068;SDS011;1545;51.728;8.796;2023-04-25T14:55:48;6.17;;;2.60;;
3068;SDS011;1545;51.728;8.796;2023-04-25T14:58:14;7.97;;;2.53;;
3068;SDS011;1545;51.728;8.796;2023-04-25T15:00:40;6.17;;;2.80;;
3068;SDS011;1545;51.728;8.796;2023-04-25T15:03:06;9.00;;;2.93;;
3068;SDS011;1545;51.728;8.796;2023-04-25T15:05:32;7.83;;;3.13;;
3068;SDS011;1545;51.728;8.796;2023-04-25T15:07:58;10.57;;;3.17;;
3068;SDS011;1545;51.728;8.796;2023-04-25T15:10:24;8.03;;;3.07;;
3068;SDS011;1545;51.728;8.796;2023-04-25T15:12:49;6.93;;;2.97;;
3068;SDS011;1545;51.728;8.796;2023-04-25T15:15:15;8.63;;;3.10;;
3068;SDS011;1545;51.728;8.796;2023-04-25T15:17:41;12.60;;;3.60;;
3068;SDS011;1545;51.728;8.796;2023-04-25T15:20:08;15.40;;;3.73;;
3068;SDS011;1545;51.728;8.796;2023-04-25T15:22:40;8.10;;;3.23;;
3068;SDS011;1545;51.728;8.796;2023-04-25T15:25:07;11.47;;;3.67;;
3068;SDS011;1545;51.728;8.796;2023-04-25T15:27:34;9.73;;;3.50;;
3068;SDS011;1545;51.728;8.796;2023-04-25T15:30:07;7.83;;;3.20;;
3068;SDS011;1545;51.728;8.796;2023-04-25T15:32:34;13.27;;;4.00;;
3068;SDS011;1545;51.728;8.796;2023-04-25T15:35:02;12.63;;;3.60;;
3068;SDS011;1545;51.728;8.796;2023-04-25T15:37:29;10.03;;;4.00;;
3068;SDS011;1545;51.728;8.796;2023-04-25T15:40:10;9.60;;;3.90;;
3068;SDS011;1545;51.728;8.796;2023-04-25T15:42:39;12.50;;;3.97;;
3068;SDS011;1545;51.728;8.796;2023-04-25T15:45:08;18.67;;;4.57;;
3068;SDS011;1545;51.728;8.796;2023-04-25T15:47:35;18.00;;;4.47;;
3068;SDS011;1545;51.728;8.796;2023-04-25T15:50:02;12.07;;;4.17;;
3068;SDS011;1545;51.728;8.796;2023-04-25T15:52:29;11.27;;;4.30;;
3068;SDS011;1545;51.728;8.796;2023-04-25T15:54:54;13.93;;;4.20;;
3068;SDS011;1545;51.728;8.796;2023-04-25T15:57:20;8.07;;;3.60;;
3068;SDS011;1545;51.728;8.796;2023-04-25T15:59:47;11.80;;;3.67;;
3068;SDS011;1545;51.728;8.796;2023-04-25T16:02:13;6.87;;;3.37;;